Airfield :
LOGIN :

Register | Disclaimer

   EN    FR    IT 

 










Legend :    VFR   Marginal VFR   IFR   Intensive IFR   Very Intensive IFR
Visi :
Ceiling :
>= 8 km
>= 3000ft
5 to 8 km
1000 to 3000 ft
1500m to 5 km
500 to 1000 ft
800 to 1500m
200 to 500 ft
< 800m
< 200 ft
Symbols :   Thunderstorms  Fog  Heavy snow  Heavy precipitations  Wind > 20 kt
SIGMETs :     Misc.  Thunderstorms  Icing  Turbulence  Mountain Waves  Volcanic Ashes







- Airport Elevation : 375 ft
- IATA code : MST


EHBK - Maastricht Aachen

CURRENT METAR :
  • 231325Z AUTO 21017KT 180V240 9999 SCT024/// 10/05 Q1020 NOSIG

EXPIRED METARs :
  • 231255Z AUTO 21017KT 180V240 9999 BKN023 BKN027 BKN040 10/05 Q1021 NOSIG
  • 231225Z AUTO 21016KT 9999 NSC 10/05 Q1021 NOSIG
  • 231155Z AUTO 21016KT 9999 FEW025 OVC034 09/05 Q1021 NOSIG
  • 231125Z AUTO 20013KT 9999 OVC034 08/05 Q1022 NOSIG
  • 231055Z AUTO 21014KT 9999 BKN033 OVC037 08/05 Q1022 NOSIG
  • 231025Z AUTO 21013KT 180V240 9999 FEW029 OVC034 08/05 Q1022 NOSIG

TAF TAF EHBK
Valid from the 23 at 12:00 until the 24 at 18:00 UTC


231112Z 2312/2418 21015KT 9999 OVC020
TEMPO 2314/2414 7000 -RADZ BKN013
PROB30 2322/2410 4000 BR -DZ BKN008
BECMG 2408/2411 21021G33KT
No reported NOTAMs for that airfield.



MET'MAP, your aeronautical weather chart ! - Copyright ORBIFLY December 2007 - Disclaimer

ORBIFLY MET'MAP TEAM :

Programming & Development : Alexandra Zaïnal
Concept & Development : Baudouin d'Aumeries
Co-Development & Prog : Marc-Olivier Méhu
Technical & hardware support : Manuel Goepfert

Contact : metmap@orbifly.com




SOURCES & CREDITS :

   NOAA